Time;durP1;ratioP1;P1;durP2;ratioP2;P2;SDS_P1;SDS_P2;PMS_P1;PMS_P2;Temp;Humidity;BMP_temperature;BMP_pressure;BME280_temperature;BME280_humidity;BME280_pressure;Samples;Min_cycle;Max_cycle;Signal;HPM_P1;HPM_P2
2023/07/03 00:00:50;;;;;;;;;;;14.50;99.90;;;;;;5092420;28;19962;-67
2023/07/03 00:03:17;;;;;;;;;;;14.50;99.90;;;;;;5092655;28;20276;-64
2023/07/03 00:05:47;;;;;;;;;;;14.60;99.90;;;;;;5074206;28;19908;-65
2023/07/03 00:08:14;;;;;;;;;;;14.70;99.90;;;;;;5092350;28;19908;-65
2023/07/03 00:10:41;;;;;;;;;;;14.80;99.90;;;;;;5092222;28;19915;-64
2023/07/03 00:13:08;;;;;;;;;;;15.00;99.90;;;;;;5092492;28;19931;-64
2023/07/03 00:15:35;;;;;;;;;;;15.10;99.90;;;;;;5092189;28;19912;-64
2023/07/03 00:18:01;;;;;;;;;;;15.20;99.90;;;;;;5092102;28;20372;-66
2023/07/03 00:20:28;;;;;;;;;;;15.40;99.90;;;;;;5092281;28;19955;-67
2023/07/03 00:22:55;;;;;;;;;;;15.50;99.90;;;;;;5092636;28;19916;-65
2023/07/03 00:25:22;;;;;;;;;;;15.60;99.90;;;;;;5092430;28;19912;-65
2023/07/03 00:27:49;;;;;;;;;;;15.60;99.90;;;;;;5092387;28;19909;-65
2023/07/03 00:30:16;;;;;;;;;;;15.60;99.90;;;;;;5092343;28;19999;-67
2023/07/03 00:32:43;;;;;;;;;;;15.60;99.90;;;;;;5092345;28;20416;-65
2023/07/03 00:35:10;;;;;;;;;;;15.70;99.90;;;;;;5094741;28;19995;-65
2023/07/03 00:37:36;;;;;;;;;;;15.70;99.90;;;;;;5096189;28;19920;-66
2023/07/03 00:40:03;;;;;;;;;;;15.80;99.90;;;;;;5095845;28;19916;-66
2023/07/03 00:42:30;;;;;;;;;;;15.90;99.90;;;;;;5096374;28;19909;-66
2023/07/03 00:44:56;;;;;;;;;;;15.90;99.90;;;;;;5095849;28;19923;-65
2023/07/03 00:47:24;;;;;;;;;;;16.00;99.90;;;;;;5096028;28;20345;-66
2023/07/03 00:49:51;;;;;;;;;;;16.00;99.90;;;;;;5077587;28;19915;-66
2023/07/03 00:52:18;;;;;;;;;;;16.00;99.90;;;;;;5095954;28;20376;-66
2023/07/03 00:54:45;;;;;;;;;;;16.00;99.90;;;;;;5095947;28;19908;-66
2023/07/03 00:57:12;;;;;;;;;;;16.20;99.90;;;;;;5095845;28;20280;-65
2023/07/03 00:59:39;;;;;;;;;;;16.30;99.90;;;;;;5095706;28;19922;-66
2023/07/03 01:02:06;;;;;;;;;;;16.50;99.90;;;;;;5095814;28;19908;-66
2023/07/03 01:04:41;;;;;;;;;;;16.70;99.90;;;;;;5095786;28;19912;-65
2023/07/03 01:07:09;;;;;;;;;;;16.90;99.90;;;;;;5095767;28;20028;-64
2023/07/03 01:09:41;;;;;;;;;;;17.20;99.90;;;;;;5095641;28;19908;-65
2023/07/03 01:12:07;;;;;;;;;;;17.30;99.90;;;;;;5095723;28;19908;-63
2023/07/03 01:14:35;;;;;;;;;;;17.30;99.90;;;;;;5095553;28;19912;-65
2023/07/03 01:17:02;;;;;;;;;;;17.40;99.90;;;;;;5095580;28;19915;-66
2023/07/03 01:19:31;;;;;;;;;;;17.50;99.90;;;;;;5095179;28;20295;-65
2023/07/03 01:22:03;;;;;;;;;;;17.50;99.90;;;;;;5095483;28;19912;-66
2023/07/03 01:24:35;;;;;;;;;;;17.60;99.90;;;;;;5095542;28;19915;-65
2023/07/03 01:27:03;;;;;;;;;;;17.60;99.90;;;;;;5095270;28;19916;-64
2023/07/03 01:29:31;;;;;;;;;;;17.60;99.90;;;;;;5094999;28;19908;-64
2023/07/03 01:31:58;;;;;;;;;;;17.50;99.90;;;;;;5095323;28;19954;-64
2023/07/03 01:34:26;;;;;;;;;;;17.60;99.90;;;;;;5095157;28;20344;-64
2023/07/03 01:36:54;;;;;;;;;;;17.70;99.90;;;;;;5095303;28;19908;-63
2023/07/03 01:39:21;;;;;;;;;;;17.70;99.90;;;;;;5095010;28;19951;-63
2023/07/03 01:41:48;;;;;;;;;;;17.70;99.90;;;;;;5095031;28;19953;-67
2023/07/03 01:44:15;;;;;;;;;;;17.80;99.90;;;;;;5094864;28;19943;-64
2023/07/03 01:46:41;;;;;;;;;;;17.80;99.90;;;;;;5094570;28;19923;-63
2023/07/03 01:49:12;;;;;;;;;;;17.80;99.90;;;;;;5076441;28;19912;-63
2023/07/03 01:51:44;;;;;;;;;;;17.90;99.90;;;;;;5094861;28;20367;-65
2023/07/03 01:54:13;;;;;;;;;;;18.10;99.90;;;;;;5094850;28;19951;-65
2023/07/03 01:56:42;;;;;;;;;;;18.30;99.90;;;;;;5094872;28;19908;-63
2023/07/03 01:59:12;;;;;;;;;;;18.60;99.90;;;;;;5094587;28;19955;-65
2023/07/03 02:01:42;;;;;;;;;;;18.70;99.90;;;;;;5094753;28;19923;-64
2023/07/03 02:04:18;;;;;;;;;;;19.00;99.90;;;;;;5094691;28;19909;-64
2023/07/03 02:06:46;;;;;;;;;;;19.20;99.90;;;;;;5094533;28;19915;-64
2023/07/03 02:09:13;;;;;;;;;;;19.30;99.90;;;;;;5094455;28;19938;-65
2023/07/03 02:11:40;;;;;;;;;;;19.50;99.90;;;;;;5094485;28;19912;-63
2023/07/03 02:14:08;;;;;;;;;;;19.70;99.90;;;;;;5094410;28;19943;-63
2023/07/03 02:16:35;;;;;;;;;;;19.80;99.70;;;;;;5094223;28;20353;-62
2023/07/03 02:19:01;;;;;;;;;;;19.90;99.40;;;;;;5094053;28;20003;-64
2023/07/03 02:21:29;;;;;;;;;;;19.90;99.60;;;;;;5094187;28;19977;-64
2023/07/03 02:23:55;;;;;;;;;;;19.90;99.40;;;;;;5094140;28;19908;-64
2023/07/03 02:26:22;;;;;;;;;;;20.10;99.60;;;;;;5094206;28;19908;-63
2023/07/03 02:28:48;;;;;;;;;;;20.10;99.30;;;;;;5093949;28;20034;-62
2023/07/03 02:31:15;;;;;;;;;;;19.80;99.30;;;;;;5093791;28;19994;-63
2023/07/03 02:33:42;;;;;;;;;;;19.90;99.20;;;;;;5093899;28;20329;-64
2023/07/03 02:36:08;;;;;;;;;;;19.90;99.10;;;;;;5093647;28;20330;-63
2023/07/03 02:38:35;;;;;;;;;;;19.80;98.80;;;;;;5093525;28;19920;-64
2023/07/03 02:41:02;;;;;;;;;;;19.70;99.90;;;;;;5093536;28;19993;-65
2023/07/03 02:43:30;;;;;;;;;;;19.90;99.40;;;;;;5093593;28;19939;-64
2023/07/03 02:46:02;;;;;;;;;;;20.00;99.00;;;;;;5075251;28;19956;-63
2023/07/03 02:48:29;;;;;;;;;;;20.10;98.80;;;;;;5093474;28;20362;-65
2023/07/03 02:50:56;;;;;;;;;;;20.00;98.40;;;;;;5093493;28;19987;-64
2023/07/03 02:53:22;;;;;;;;;;;19.80;98.90;;;;;;5093605;28;20288;-65
2023/07/03 02:55:50;;;;;;;;;;;19.90;99.40;;;;;;5093792;28;19953;-63
2023/07/03 02:58:17;;;;;;;;;;;20.20;99.10;;;;;;5092762;28;19913;-64
2023/07/03 03:00:44;;;;;;;;;;;20.40;98.30;;;;;;5093264;28;19923;-64
2023/07/03 03:03:11;;;;;;;;;;;20.60;98.00;;;;;;5093434;28;19985;-63
2023/07/03 03:05:37;;;;;;;;;;;20.80;97.40;;;;;;5093366;28;19994;-65
2023/07/03 03:08:04;;;;;;;;;;;20.60;97.50;;;;;;5093315;28;20005;-64
2023/07/03 03:10:31;;;;;;;;;;;20.60;97.60;;;;;;5093334;28;19927;-63
2023/07/03 03:12:57;;;;;;;;;;;20.70;97.50;;;;;;5093198;28;19908;-62
2023/07/03 03:15:26;;;;;;;;;;;20.70;97.50;;;;;;5093132;28;19912;-64
2023/07/03 03:17:52;;;;;;;;;;;20.70;97.30;;;;;;5093162;28;19908;-62
2023/07/03 03:20:19;;;;;;;;;;;20.80;97.00;;;;;;5093396;28;20361;-65
2023/07/03 03:22:46;;;;;;;;;;;20.90;97.00;;;;;;5093276;28;19918;-64
2023/07/03 03:25:12;;;;;;;;;;;20.80;96.80;;;;;;5093308;28;19908;-63
2023/07/03 03:27:39;;;;;;;;;;;20.70;96.60;;;;;;5093204;28;20368;-63
2023/07/03 03:30:06;;;;;;;;;;;20.70;96.60;;;;;;5093210;28;19908;-62
2023/07/03 03:32:33;;;;;;;;;;;20.60;96.90;;;;;;5093174;28;19908;-64
2023/07/03 03:35:00;;;;;;;;;;;20.40;97.30;;;;;;5093228;28;19908;-64
2023/07/03 03:37:27;;;;;;;;;;;20.30;97.30;;;;;;5092995;28;19915;-64
2023/07/03 03:39:54;;;;;;;;;;;20.30;97.30;;;;;;5092875;28;19917;-63
2023/07/03 03:42:20;;;;;;;;;;;20.30;97.30;;;;;;5092826;28;20318;-63
2023/07/03 03:44:47;;;;;;;;;;;20.30;97.70;;;;;;5074742;28;19994;-66
2023/07/03 03:47:14;;;;;;;;;;;20.30;97.90;;;;;;5092950;28;20353;-62
2023/07/03 03:49:41;;;;;;;;;;;20.30;97.70;;;;;;5092740;28;19998;-61
2023/07/03 03:52:07;;;;;;;;;;;20.20;97.40;;;;;;5092960;28;19915;-64
2023/07/03 03:54:34;;;;;;;;;;;20.20;97.50;;;;;;5092902;28;19987;-63
2023/07/03 03:57:01;;;;;;;;;;;20.20;97.50;;;;;;5092818;28;19943;-63
2023/07/03 03:59:27;;;;;;;;;;;20.40;97.40;;;;;;5092785;28;19977;-65
2023/07/03 04:01:54;;;;;;;;;;;20.40;97.10;;;;;;5092859;28;20311;-66
2023/07/03 04:04:21;;;;;;;;;;;20.60;97.00;;;;;;5092793;28;20414;-64
2023/07/03 04:06:47;;;;;;;;;;;20.50;97.00;;;;;;5092692;28;20365;-63
2023/07/03 04:09:14;;;;;;;;;;;20.30;97.10;;;;;;5093410;28;19916;-63
2023/07/03 04:11:40;;;;;;;;;;;20.40;97.20;;;;;;5096798;28;19908;-63
2023/07/03 04:14:07;;;;;;;;;;;20.60;97.40;;;;;;5096667;28;19952;-63
2023/07/03 04:16:34;;;;;;;;;;;20.80;97.10;;;;;;5096994;28;19915;-63
2023/07/03 04:19:01;;;;;;;;;;;21.10;96.90;;;;;;5096610;28;19916;-63
2023/07/03 04:21:27;;;;;;;;;;;21.30;96.40;;;;;;5096604;28;19909;-63
2023/07/03 04:23:54;;;;;;;;;;;21.40;96.50;;;;;;5096785;28;20356;-65
2023/07/03 04:26:22;;;;;;;;;;;21.30;96.80;;;;;;5096768;28;19908;-63
2023/07/03 04:28:49;;;;;;;;;;;21.10;97.00;;;;;;5096471;28;19908;-64
2023/07/03 04:31:16;;;;;;;;;;;20.90;97.10;;;;;;5096722;28;19912;-64
2023/07/03 04:33:45;;;;;;;;;;;20.80;97.80;;;;;;5096642;28;20014;-65
2023/07/03 04:36:13;;;;;;;;;;;20.50;99.00;;;;;;5096218;28;20061;-63
2023/07/03 04:38:41;;;;;;;;;;;20.20;99.60;;;;;;5096452;28;20284;-65
2023/07/03 04:41:08;;;;;;;;;;;19.90;99.90;;;;;;5096418;28;20024;-64
2023/07/03 04:43:35;;;;;;;;;;;19.60;99.90;;;;;;5096590;28;19915;-64
2023/07/03 04:46:03;;;;;;;;;;;19.40;99.90;;;;;;5096386;28;19920;-63
2023/07/03 04:48:30;;;;;;;;;;;19.10;99.90;;;;;;5096233;28;20312;-64
2023/07/03 04:50:58;;;;;;;;;;;19.00;99.90;;;;;;5096286;28;19915;-64
2023/07/03 04:53:25;;;;;;;;;;;19.00;99.90;;;;;;5096441;28;20052;-64
2023/07/03 04:55:52;;;;;;;;;;;19.00;99.90;;;;;;5096143;28;19915;-64
2023/07/03 04:58:19;;;;;;;;;;;18.90;99.90;;;;;;5096313;28;19912;-63
2023/07/03 05:00:47;;;;;;;;;;;18.90;99.90;;;;;;5096059;28;20254;-64
2023/07/03 05:03:13;;;;;;;;;;;18.90;99.90;;;;;;5096109;28;20011;-64
2023/07/03 05:05:40;;;;;;;;;;;18.90;99.90;;;;;;5095807;28;19908;-63
2023/07/03 05:08:07;;;;;;;;;;;19.00;99.90;;;;;;5095766;28;20257;-64
2023/07/03 05:10:34;;;;;;;;;;;19.20;99.90;;;;;;5095759;28;19977;-63
2023/07/03 05:13:00;;;;;;;;;;;19.10;99.90;;;;;;5095861;28;19912;-64
2023/07/03 05:15:30;;;;;;;;;;;19.00;99.90;;;;;;5077638;28;20002;-63
2023/07/03 05:17:58;;;;;;;;;;;19.10;99.90;;;;;;5095346;28;19908;-64
2023/07/03 05:20:26;;;;;;;;;;;19.00;99.90;;;;;;5094893;28;19916;-64
2023/07/03 05:22:52;;;;;;;;;;;19.00;99.90;;;;;;5095064;28;19908;-64
2023/07/03 05:25:19;;;;;;;;;;;18.80;99.90;;;;;;5095678;28;20012;-62
2023/07/03 05:27:46;;;;;;;;;;;18.80;99.90;;;;;;5095316;28;19908;-65
2023/07/03 05:30:13;;;;;;;;;;;18.80;99.90;;;;;;5095386;28;19915;-62
2023/07/03 05:32:39;;;;;;;;;;;18.60;99.90;;;;;;5095605;28;19961;-64
2023/07/03 05:35:06;;;;;;;;;;;18.60;99.90;;;;;;5095481;28;19908;-64
2023/07/03 05:37:34;;;;;;;;;;;18.50;99.90;;;;;;5095265;28;19908;-63
2023/07/03 05:40:00;;;;;;;;;;;18.40;99.90;;;;;;5095179;28;19916;-68
2023/07/03 05:42:27;;;;;;;;;;;18.30;99.90;;;;;;5095366;28;19987;-64
2023/07/03 05:44:53;;;;;;;;;;;18.20;99.90;;;;;;5094873;28;20014;-64
2023/07/03 05:47:20;;;;;;;;;;;18.10;99.90;;;;;;5095219;28;20348;-66
2023/07/03 05:49:48;;;;;;;;;;;18.00;99.90;;;;;;5095240;28;19915;-66
2023/07/03 05:52:15;;;;;;;;;;;18.00;99.90;;;;;;5095064;28;20346;-64
2023/07/03 05:54:41;;;;;;;;;;;17.90;99.90;;;;;;5095209;28;20379;-64
2023/07/03 05:57:09;;;;;;;;;;;18.00;99.90;;;;;;5094969;28;19908;-65
2023/07/03 05:59:37;;;;;;;;;;;18.00;99.90;;;;;;5094897;28;19954;-64
2023/07/03 06:02:05;;;;;;;;;;;18.00;99.90;;;;;;5094966;28;19912;-64
2023/07/03 06:04:33;;;;;;;;;;;17.90;99.90;;;;;;5095050;28;19951;-64
2023/07/03 06:07:00;;;;;;;;;;;17.80;99.90;;;;;;5094945;28;19909;-62
2023/07/03 06:09:28;;;;;;;;;;;17.80;99.90;;;;;;5094490;28;19908;-64
2023/07/03 06:11:55;;;;;;;;;;;17.70;99.90;;;;;;5094909;28;20293;-64
2023/07/03 06:14:23;;;;;;;;;;;17.60;99.90;;;;;;5094678;28;20285;-63
2023/07/03 06:16:50;;;;;;;;;;;17.70;99.90;;;;;;5094601;28;19908;-63
2023/07/03 06:19:17;;;;;;;;;;;17.60;99.90;;;;;;5094204;28;19928;-67
2023/07/03 06:21:44;;;;;;;;;;;17.60;99.90;;;;;;5094407;28;19915;-64
2023/07/03 06:24:11;;;;;;;;;;;17.50;99.90;;;;;;5094641;28;20361;-64
2023/07/03 06:26:39;;;;;;;;;;;17.50;99.90;;;;;;5094449;28;19908;-65
2023/07/03 06:29:07;;;;;;;;;;;17.40;99.90;;;;;;5094126;28;19908;-64
2023/07/03 06:31:34;;;;;;;;;;;17.30;99.90;;;;;;5094245;28;19912;-61
2023/07/03 06:34:01;;;;;;;;;;;17.20;99.90;;;;;;5094314;28;19915;-64
2023/07/03 06:36:27;;;;;;;;;;;17.10;99.90;;;;;;5094273;28;19914;-64
2023/07/03 06:39:01;;;;;;;;;;;16.90;99.90;;;;;;5094100;28;19936;-64
2023/07/03 06:41:29;;;;;;;;;;;16.90;99.90;;;;;;5094091;28;19908;-65
2023/07/03 06:43:56;;;;;;;;;;;16.90;99.90;;;;;;5093777;28;19916;-63
2023/07/03 06:46:23;;;;;;;;;;;16.80;99.90;;;;;;5093952;28;19915;-63
2023/07/03 06:48:50;;;;;;;;;;;16.80;99.90;;;;;;5094069;28;19961;-64
2023/07/03 06:51:17;;;;;;;;;;;16.80;99.90;;;;;;5094066;28;19962;-64
2023/07/03 06:53:43;;;;;;;;;;;16.70;99.90;;;;;;5093991;28;19909;-64
2023/07/03 06:56:10;;;;;;;;;;;16.60;99.90;;;;;;5093879;28;20276;-63
2023/07/03 06:58:36;;;;;;;;;;;16.60;99.90;;;;;;5093538;28;20011;-63
2023/07/03 07:01:10;;;;;;;;;;;16.50;99.90;;;;;;5093788;28;20558;-63
2023/07/03 07:03:38;;;;;;;;;;;16.50;99.90;;;;;;5093706;28;19909;-63
2023/07/03 07:06:09;;;;;;;;;;;16.50;99.90;;;;;;5093682;28;19912;-63
2023/07/03 07:08:35;;;;;;;;;;;16.40;99.90;;;;;;5093038;28;19999;-62
2023/07/03 07:11:03;;;;;;;;;;;16.40;99.90;;;;;;5093652;28;19991;-63
2023/07/03 07:13:29;;;;;;;;;;;16.30;99.90;;;;;;5093391;28;20368;-63
2023/07/03 07:15:56;;;;;;;;;;;16.30;99.90;;;;;;5093364;28;20365;-65
2023/07/03 07:18:23;;;;;;;;;;;16.30;99.90;;;;;;5093243;28;20356;-63
2023/07/03 07:20:49;;;;;;;;;;;16.20;99.90;;;;;;5093060;28;20011;-63
2023/07/03 07:23:16;;;;;;;;;;;16.20;99.90;;;;;;5093287;28;19908;-63
2023/07/03 07:25:42;;;;;;;;;;;16.20;99.90;;;;;;5093229;28;19999;-64
2023/07/03 07:28:09;;;;;;;;;;;16.10;99.90;;;;;;5093165;28;19999;-63
2023/07/03 07:30:37;;;;;;;;;;;16.10;99.90;;;;;;5093402;28;20002;-62
2023/07/03 07:33:04;;;;;;;;;;;16.10;99.90;;;;;;5093257;28;19934;-63
2023/07/03 07:35:34;;;;;;;;;;;16.10;99.90;;;;;;5093150;28;20007;-63
2023/07/03 07:38:01;;;;;;;;;;;16.10;99.90;;;;;;5093672;28;19912;-65
2023/07/03 07:40:28;;;;;;;;;;;16.10;99.90;;;;;;5093008;28;19920;-65
2023/07/03 07:42:54;;;;;;;;;;;16.00;99.90;;;;;;5093295;28;19956;-63
2023/07/03 07:45:21;;;;;;;;;;;16.00;99.90;;;;;;5092638;28;20429;-63
2023/07/03 07:47:48;;;;;;;;;;;16.00;99.90;;;;;;5092978;28;19908;-64
2023/07/03 07:50:14;;;;;;;;;;;15.90;99.90;;;;;;5092883;28;19954;-64
2023/07/03 07:52:41;;;;;;;;;;;15.90;99.90;;;;;;5093011;28;19961;-63
2023/07/03 07:55:08;;;;;;;;;;;15.90;99.90;;;;;;5093193;28;20006;-62
2023/07/03 07:57:34;;;;;;;;;;;15.80;99.90;;;;;;5092842;28;20404;-63
2023/07/03 08:00:01;;;;;;;;;;;15.80;99.90;;;;;;5092834;28;19923;-63
2023/07/03 08:02:28;;;;;;;;;;;15.80;99.90;;;;;;5092944;28;20357;-65
2023/07/03 08:04:56;;;;;;;;;;;15.80;99.90;;;;;;5092862;28;19936;-62
2023/07/03 08:07:23;;;;;;;;;;;15.70;99.90;;;;;;5092605;28;19908;-63
2023/07/03 08:09:49;;;;;;;;;;;15.70;99.90;;;;;;5092802;28;20353;-61
2023/07/03 08:12:16;;;;;;;;;;;15.70;99.90;;;;;;5093005;28;19912;-62
2023/07/03 08:14:43;;;;;;;;;;;15.60;99.90;;;;;;5092901;28;20300;-63
2023/07/03 08:17:09;;;;;;;;;;;15.70;99.90;;;;;;5092939;28;19908;-63
2023/07/03 08:19:36;;;;;;;;;;;15.70;99.90;;;;;;5092482;28;19917;-63
2023/07/03 08:22:03;;;;;;;;;;;15.60;99.90;;;;;;5092472;28;19950;-62
2023/07/03 08:24:30;;;;;;;;;;;15.60;99.90;;;;;;5092787;28;19958;-63
2023/07/03 08:26:56;;;;;;;;;;;15.60;99.90;;;;;;5074584;28;20007;-63
2023/07/03 08:29:23;;;;;;;;;;;15.70;99.90;;;;;;5092602;28;20041;-62
2023/07/03 08:31:50;;;;;;;;;;;15.60;99.90;;;;;;5092794;28;19915;-63
2023/07/03 08:34:16;;;;;;;;;;;15.60;99.90;;;;;;5092446;28;19908;-63
2023/07/03 08:36:43;;;;;;;;;;;15.60;99.90;;;;;;5092823;28;19908;-63
2023/07/03 08:39:10;;;;;;;;;;;15.60;99.90;;;;;;5074379;28;19916;-63
2023/07/03 08:41:41;;;;;;;;;;;15.50;99.90;;;;;;5092697;28;19992;-63
2023/07/03 08:44:09;;;;;;;;;;;15.50;99.90;;;;;;5092346;28;19912;-63
2023/07/03 08:46:36;;;;;;;;;;;15.60;99.90;;;;;;5092600;28;19912;-62
2023/07/03 08:49:04;;;;;;;;;;;15.50;99.90;;;;;;5092527;28;19955;-65
2023/07/03 08:51:31;;;;;;;;;;;15.50;99.90;;;;;;5092643;28;20273;-63
2023/07/03 08:54:03;;;;;;;;;;;15.50;99.90;;;;;;5092407;28;20036;-62
2023/07/03 08:56:32;;;;;;;;;;;15.50;99.90;;;;;;5093434;28;19915;-63
2023/07/03 08:58:59;;;;;;;;;;;15.60;99.90;;;;;;5095839;28;19912;-64
2023/07/03 09:01:32;;;;;;;;;;;15.50;99.90;;;;;;5096055;28;19930;-64
2023/07/03 09:04:04;;;;;;;;;;;15.50;99.90;;;;;;5095983;28;20307;-65
2023/07/03 09:06:47;;;;;;;;;;;15.50;99.90;;;;;;5095785;28;19999;-65
2023/07/03 09:09:22;;;;;;;;;;;15.50;99.90;;;;;;5095889;28;19916;-64
2023/07/03 09:11:58;;;;;;;;;;;15.60;99.90;;;;;;5096176;28;19934;-63
2023/07/03 09:14:26;;;;;;;;;;;15.60;99.90;;;;;;5096046;28;19912;-62
2023/07/03 09:16:53;;;;;;;;;;;15.50;99.90;;;;;;5077634;28;19951;-62
2023/07/03 09:19:22;;;;;;;;;;;15.50;99.90;;;;;;5095549;28;19923;-63
2023/07/03 09:21:53;;;;;;;;;;;15.60;99.90;;;;;;5095678;28;19998;-63
2023/07/03 09:24:19;;;;;;;;;;;15.60;99.90;;;;;;5095765;28;19961;-64
2023/07/03 09:27:09;;;;;;;;;;;15.60;99.90;;;;;;5095705;28;19916;-65
2023/07/03 09:29:36;;;;;;;;;;;15.60;99.90;;;;;;5069320;28;19908;-64
2023/07/03 09:32:03;;;;;;;;;;;15.60;99.90;;;;;;5095524;28;20006;-62
2023/07/03 09:34:50;;;;;;;;;;;15.60;99.90;;;;;;5095482;28;19908;-63
2023/07/03 09:37:16;;;;;;;;;;;15.60;99.90;;;;;;5094919;28;19912;-63
2023/07/03 09:39:46;;;;;;;;;;;15.50;99.90;;;;;;5095146;28;19969;-64
2023/07/03 09:42:14;;;;;;;;;;;15.60;99.90;;;;;;5095519;28;19947;-63
2023/07/03 09:44:42;;;;;;;;;;;15.60;99.90;;;;;;5095064;28;20010;-64
2023/07/03 09:47:22;;;;;;;;;;;15.60;99.90;;;;;;5095010;28;19919;-63
2023/07/03 09:49:49;;;;;;;;;;;15.60;99.90;;;;;;5095078;28;20011;-64
2023/07/03 09:52:15;;;;;;;;;;;15.60;99.90;;;;;;5095295;28;19962;-61
2023/07/03 09:54:43;;;;;;;;;;;15.50;99.90;;;;;;5076940;28;19912;-64
2023/07/03 09:57:20;;;;;;;;;;;15.50;99.90;;;;;;5094686;28;19908;-63
2023/07/03 09:59:46;;;;;;;;;;;15.40;99.90;;;;;;5095140;28;20265;-64
2023/07/03 10:02:13;;;;;;;;;;;15.30;99.90;;;;;;5095016;28;20435;-64
2023/07/03 10:04:44;;;;;;;;;;;15.30;99.90;;;;;;5095027;28;19979;-64
2023/07/03 10:07:14;;;;;;;;;;;15.20;99.90;;;;;;5094126;28;19919;-65
2023/07/03 10:09:42;;;;;;;;;;;15.20;99.90;;;;;;5094506;28;20362;-64
2023/07/03 10:12:11;;;;;;;;;;;15.20;99.90;;;;;;5094423;28;19908;-63
2023/07/03 10:14:58;;;;;;;;;;;15.20;99.90;;;;;;5094604;28;20013;-64
2023/07/03 10:17:30;;;;;;;;;;;15.20;99.90;;;;;;5083596;28;19919;-63
2023/07/03 10:20:00;;;;;;;;;;;15.20;99.90;;;;;;5094236;28;20003;-64
2023/07/03 10:22:29;;;;;;;;;;;15.20;99.90;;;;;;5094179;28;19996;-63
2023/07/03 10:25:00;;;;;;;;;;;15.20;99.90;;;;;;5094570;28;19915;-63
2023/07/03 10:27:28;;;;;;;;;;;15.20;99.90;;;;;;5094510;28;19912;-63
2023/07/03 10:29:55;;;;;;;;;;;15.20;99.90;;;;;;5094163;28;19912;-64
2023/07/03 10:32:24;;;;;;;;;;;15.20;99.90;;;;;;5094270;28;19908;-63
2023/07/03 10:35:17;;;;;;;;;;;15.10;99.90;;;;;;5094382;28;19914;-62
2023/07/03 10:37:47;;;;;;;;;;;15.10;99.90;;;;;;5091364;28;19975;-63
2023/07/03 10:40:28;;;;;;;;;;;15.10;99.90;;;;;;5093917;28;19916;-63
2023/07/03 10:42:56;;;;;;;;;;;15.00;99.90;;;;;;5094013;28;19912;-64
2023/07/03 10:45:25;;;;;;;;;;;15.00;99.90;;;;;;5093885;28;19946;-63
2023/07/03 10:48:02;;;;;;;;;;;15.00;99.90;;;;;;5094170;28;19908;-64
2023/07/03 10:50:32;;;;;;;;;;;14.90;99.90;;;;;;5093979;28;19998;-63
2023/07/03 10:53:22;;;;;;;;;;;14.90;99.90;;;;;;5093929;28;19908;-64
2023/07/03 10:55:48;;;;;;;;;;;15.00;99.90;;;;;;5085895;28;19908;-64
2023/07/03 10:58:24;;;;;;;;;;;15.00;99.90;;;;;;5093668;28;19938;-66
2023/07/03 11:00:50;;;;;;;;;;;14.90;99.90;;;;;;5093770;28;20002;-64
2023/07/03 11:03:17;;;;;;;;;;;14.90;99.90;;;;;;5093676;28;20356;-65
2023/07/03 11:05:58;;;;;;;;;;;14.90;99.90;;;;;;5093575;28;19978;-64
2023/07/03 11:08:44;;;;;;;;;;;14.90;99.90;;;;;;5093222;28;19918;-65
2023/07/03 11:11:29;;;;;;;;;;;14.90;99.90;;;;;;5092879;28;20422;-63
2023/07/03 11:14:06;;;;;;;;;;;14.80;99.90;;;;;;5093643;28;19908;-62
2023/07/03 11:16:39;;;;;;;;;;;14.80;99.90;;;;;;5093480;28;19909;-65
2023/07/03 11:19:17;;;;;;;;;;;14.80;99.90;;;;;;5092580;28;19951;-63
2023/07/03 11:22:13;;;;;;;;;;;14.80;99.90;;;;;;5093373;28;20494;-63
2023/07/03 11:24:43;;;;;;;;;;;14.80;99.90;;;;;;5084184;28;19995;-63
2023/07/03 11:27:15;;;;;;;;;;;14.80;99.90;;;;;;5093409;28;19999;-64
2023/07/03 11:29:42;;;;;;;;;;;14.80;99.90;;;;;;5093199;28;19916;-63
2023/07/03 11:32:09;;;;;;;;;;;14.70;99.90;;;;;;5093514;28;19908;-63
2023/07/03 11:34:36;;;;;;;;;;;14.80;99.90;;;;;;5093288;28;20415;-64
2023/07/03 11:37:22;;;;;;;;;;;14.80;99.90;;;;;;5093103;28;19940;-64
2023/07/03 11:39:50;;;;;;;;;;;14.70;99.90;;;;;;5092862;28;19931;-65
2023/07/03 11:42:26;;;;;;;;;;;14.80;99.90;;;;;;5093115;28;19918;-63
2023/07/03 11:45:05;;;;;;;;;;;14.70;99.90;;;;;;5092958;28;20330;-65
2023/07/03 11:47:35;;;;;;;;;;;14.70;99.90;;;;;;5092934;28;19939;-65
2023/07/03 11:50:03;;;;;;;;;;;14.70;99.90;;;;;;5092999;28;20273;-64
2023/07/03 11:52:46;;;;;;;;;;;14.70;99.90;;;;;;5092840;28;20423;-63
2023/07/03 11:55:20;;;;;;;;;;;14.70;99.90;;;;;;5092884;28;19995;-64
2023/07/03 11:57:51;;;;;;;;;;;14.70;99.90;;;;;;5093046;28;19954;-63
2023/07/03 12:00:24;;;;;;;;;;;14.70;99.90;;;;;;5092771;28;19963;-64
2023/07/03 12:02:50;;;;;;;;;;;14.70;99.90;;;;;;5092662;28;19950;-67
2023/07/03 12:05:35;;;;;;;;;;;14.70;99.90;;;;;;5092629;28;19916;-63
2023/07/03 12:08:02;;;;;;;;;;;14.70;99.90;;;;;;5092814;28;19912;-64
2023/07/03 12:10:28;;;;;;;;;;;14.70;99.90;;;;;;5092583;28;20287;-64
2023/07/03 12:13:13;;;;;;;;;;;14.70;99.90;;;;;;5093016;28;19953;-65
2023/07/03 12:15:40;;;;;;;;;;;14.60;99.90;;;;;;5092898;28;19912;-64
2023/07/03 12:18:08;;;;;;;;;;;14.60;99.90;;;;;;5092643;28;19998;-64
2023/07/03 12:20:35;;;;;;;;;;;14.60;99.90;;;;;;5092619;28;19920;-63
2023/07/03 12:23:02;;;;;;;;;;;14.60;99.90;;;;;;5092866;28;19908;-67
2023/07/03 12:25:29;;;;;;;;;;;14.60;99.90;;;;;;5092713;28;19915;-64
2023/07/03 12:28:08;;;;;;;;;;;14.70;99.90;;;;;;5092583;28;19909;-64
2023/07/03 12:30:34;;;;;;;;;;;14.70;99.90;;;;;;5093995;28;20375;-63
2023/07/03 12:33:02;;;;;;;;;;;14.70;99.90;;;;;;5096632;28;19908;-67
2023/07/03 12:35:34;;;;;;;;;;;14.70;99.90;;;;;;5096592;28;19908;-64
2023/07/03 12:38:05;;;;;;;;;;;14.60;99.90;;;;;;5096474;28;19908;-63
2023/07/03 12:40:32;;;;;;;;;;;14.60;99.90;;;;;;5096039;28;19920;-66
2023/07/03 12:42:58;;;;;;;;;;;14.60;99.90;;;;;;5096558;28;19915;-65
2023/07/03 12:45:27;;;;;;;;;;;14.60;99.90;;;;;;5096279;28;19924;-65
2023/07/03 12:48:23;;;;;;;;;;;14.60;99.90;;;;;;5096289;28;19908;-63
2023/07/03 12:50:51;;;;;;;;;;;14.60;99.90;;;;;;5086919;28;19975;-69
2023/07/03 12:53:18;;;;;;;;;;;14.50;99.90;;;;;;5096604;28;19919;-67
2023/07/03 12:55:47;;;;;;;;;;;14.60;99.90;;;;;;5096287;28;19916;-66
2023/07/03 12:58:14;;;;;;;;;;;14.50;99.90;;;;;;5096508;28;20398;-63
2023/07/03 13:00:40;;;;;;;;;;;14.50;99.90;;;;;;5096019;28;20391;-64
2023/07/03 13:03:12;;;;;;;;;;;14.50;99.90;;;;;;5095893;28;19922;-64
2023/07/03 13:05:39;;;;;;;;;;;14.50;99.90;;;;;;5096050;28;19918;-67
2023/07/03 13:08:15;;;;;;;;;;;14.50;99.90;;;;;;5096107;28;19954;-68
2023/07/03 13:11:02;;;;;;;;;;;14.50;99.90;;;;;;5095919;28;19908;-66
2023/07/03 13:13:28;;;;;;;;;;;14.50;99.90;;;;;;5095868;28;19912;-63
2023/07/03 13:15:55;;;;;;;;;;;14.50;99.90;;;;;;5095850;28;19912;-64
2023/07/03 13:18:23;;;;;;;;;;;14.50;99.90;;;;;;5095854;28;19959;-63
2023/07/03 13:20:55;;;;;;;;;;;14.50;99.90;;;;;;5096343;28;20353;-63
2023/07/03 13:23:29;;;;;;;;;;;14.50;99.90;;;;;;5095717;28;19919;-69
2023/07/03 13:25:56;;;;;;;;;;;14.50;99.90;;;;;;5095741;28;19912;-64
2023/07/03 13:28:26;;;;;;;;;;;14.50;99.90;;;;;;5095626;28;20280;-69
2023/07/03 13:31:11;;;;;;;;;;;14.50;99.90;;;;;;5095350;28;19919;-64
2023/07/03 13:33:38;;;;;;;;;;;14.50;99.90;;;;;;5095564;28;19977;-69
2023/07/03 13:36:20;;;;;;;;;;;14.40;99.90;;;;;;5095819;28;19912;-66
2023/07/03 13:38:58;;;;;;;;;;;14.40;99.90;;;;;;5095305;28;19986;-69
2023/07/03 13:41:25;;;;;;;;;;;14.40;99.90;;;;;;5095020;28;19958;-65
2023/07/03 13:43:56;;;;;;;;;;;14.30;99.90;;;;;;5094917;28;19916;-69
2023/07/03 13:46:23;;;;;;;;;;;14.40;99.90;;;;;;5095137;28;20372;-64
2023/07/03 13:48:50;;;;;;;;;;;14.40;99.90;;;;;;5095244;28;19914;-67
2023/07/03 13:51:17;;;;;;;;;;;14.30;99.90;;;;;;5095104;28;19908;-62
2023/07/03 13:53:43;;;;;;;;;;;14.30;99.90;;;;;;5095033;28;20433;-63
2023/07/03 13:56:10;;;;;;;;;;;14.30;99.90;;;;;;5094791;28;19999;-65
2023/07/03 13:58:37;;;;;;;;;;;14.20;99.90;;;;;;5095046;28;19916;-63
2023/07/03 14:01:04;;;;;;;;;;;14.20;99.90;;;;;;5095085;28;20336;-63
2023/07/03 14:03:32;;;;;;;;;;;14.20;99.90;;;;;;5077094;28;19915;-63
2023/07/03 14:05:58;;;;;;;;;;;14.10;99.90;;;;;;5094870;28;19908;-63
2023/07/03 14:08:28;;;;;;;;;;;14.10;99.90;;;;;;5094859;28;19912;-64
2023/07/03 14:10:55;;;;;;;;;;;14.10;99.90;;;;;;5094651;28;19908;-66
2023/07/03 14:13:22;;;;;;;;;;;14.10;99.90;;;;;;5094738;28;19915;-64
2023/07/03 14:15:49;;;;;;;;;;;14.10;99.90;;;;;;5094927;28;20310;-65
2023/07/03 14:18:17;;;;;;;;;;;14.10;99.90;;;;;;5094313;28;20308;-63
2023/07/03 14:20:45;;;;;;;;;;;14.10;99.90;;;;;;5094396;28;19958;-64
2023/07/03 14:23:12;;;;;;;;;;;14.00;99.90;;;;;;5094544;28;19912;-66
2023/07/03 14:25:39;;;;;;;;;;;14.00;99.90;;;;;;5094464;28;20032;-64